EFTPEFVA

Guest
Details From EFTP - Tampere Pirkkala
To EFVA - VAASA
Flight Number -
Tags generated
Created
Modified
Stats Distance 111 nm / 206 km
Max Altitude 9,500 ft / 2,896 m
Waypoints 4
Social Downloads 1
Likes 0
Share VATSIM

Download

Looking for another format? Having issues loading an existing format? Contact us
Advertisement - Login to hide

Notes

Basic altitude profile: - Ascent Rate: 2500ft/min - Ascent Speed: 250kts - Cruise Altitude: 35000ft - Cruise Speed: 420kts - Descent Rate: 1500ft/min - Descent Speed: 250kts Options: - Use NATs: yes - Use PACOTS: yes - Use low airways: yes - Use high airways: no

Route

EFTP GELSO P854 VAS EFVA

ID Type Via Altitude Latitude Longitude Leg Dist Tot Dist Heading (true) Name
O EFTP APT - 0 ft / 0 m 61.41415˚ 23.60440˚ - 0 nm - Tampere Pirkkala
GELSO FIX - 6,000 ft / 1,829 m 62.63778˚ 22.23444˚ 83 nm 83 nm 333° / 332° -
VAS VOR P854 (AWY-LO) 9,500 ft / 2,896 m 63.04137˚ 21.76487˚ 27 nm 110 nm 332° / 332° VAASA VOR-DME
O EFVA APT - 0 ft / 0 m 63.05065˚ 21.76217˚ 0 nm 111 nm 352° / 352° VAASA

Altitude Profile

Advertisement - Login to hide

EFTP

Details ICAO EFTP (TMP)
Name Tampere Pirkkala
Region Finland
Timezone Europe/Helsinki (UTC+2.0)
Stats Elevation 390 ft / 119 m (AMSL)
Location 61.414145° 23.604397°
Runways 1
Magnetic Variation 8.755° E

METAR

EFTP 132220Z AUTO 20010KT 9999 FEW008 SCT015 BKN019 OVC042 01/00 Q0994

Decode

TAF

TAF AMD TAF AMD EFTP 132123Z 1321/1421 19008KT 9999 FEW009 BKN043 OVC049 TEMPO 1321/1403 4000 -SN OVC010 TEMPO 1403/1408 BKN013

Decode

Departure Runways

ID Width Length Bearing (true) Bearing (mag) Surface Threshold Offset Overrun Length
06 148 ft / 45 m 8,831 ft / 2,692 m 64.40° 55.64° Asphalt 0 ft / 0 m 801 ft / 244 m
24 148 ft / 45 m 8,831 ft / 2,692 m 244.45° 235.69° Asphalt 0 ft / 0 m 640 ft / 195 m

EFVA

Details ICAO EFVA (VAA)
Name VAASA
Region Finland
Timezone Europe/Helsinki (UTC+2.0)
Stats Elevation 19 ft / 6 m (AMSL)
Location 63.050650° 21.762173°
Runways 1
Magnetic Variation 8.442° E

METAR

EFVA 132220Z AUTO 21006KT 180V240 9999 -RASN BKN013/// OVC021/// 01/M01 Q0988

Decode

TAF

TAF TAF EFVA 132028Z 1321/1421 22009KT 9999 OVC020 BECMG 1321/1323 BKN013 TEMPO 1403/1408 3000 -RASN BKN005 BECMG 1408/1411 BKN020

Decode

Destination Runways

ID Width Length Bearing (true) Bearing (mag) Surface Threshold Offset Overrun Length
16 157 ft / 48 m 8,707 ft / 2,654 m 163.02° 154.58° Asphalt 0 ft / 0 m 0 ft / 0 m
34 157 ft / 48 m 8,707 ft / 2,654 m 343.03° 334.59° Asphalt 525 ft / 160 m 0 ft / 0 m

Approach Navaids

Runway Type Ident Frequency Range Bearing (true) Bearing (mag) Slope Elevation
16 Localiser VA 108.50 MHz 18 nm / 33 km 163.20° 154.76° - 19 ft / 6 m (AMSL)
16 Glidescope VA 108.50 MHz 10 nm / 19 km 163.03° 154.59° 3.00° 19 ft / 6 m (AMSL)
16 DME VA 108.50 MHz 18 nm / 33 km - - - 78 ft / 24 m (AMSL)